Time;durP1;ratioP1;P1;durP2;ratioP2;P2;SDS_P1;SDS_P2;PMS_P1;PMS_P2;Temp;Humidity;BMP_temperature;BMP_pressure;BME280_temperature;BME280_humidity;BME280_pressure;Samples;Min_cycle;Max_cycle;Signal;HPM_P1;HPM_P2
2024/01/07 00:01:18;;;;;;;0.10;0.10;;;;;;;;;;5129729;28;20037;-84
2024/01/07 00:03:44;;;;;;;0.55;0.55;;;;;;;;;;5112573;28;20509;-85
2024/01/07 00:06:11;;;;;;;0.63;0.63;;;;;;;;;;5129332;27;20434;-85
2024/01/07 00:08:37;;;;;;;0.20;0.20;;;;;;;;;;5095469;28;20074;-84
2024/01/07 00:11:03;;;;;;;1.30;0.57;;;;;;;;;;5129133;28;20145;-84
2024/01/07 00:13:29;;;;;;;0.10;0.10;;;;;;;;;;5112084;28;20046;-84
2024/01/07 00:15:56;;;;;;;2.40;0.68;;;;;;;;;;5111476;28;20126;-84
2024/01/07 00:18:23;;;;;;;0.40;0.40;;;;;;;;;;5111871;28;20395;-86
2024/01/07 00:20:49;;;;;;;0.10;0.10;;;;;;;;;;5111421;27;20050;-85
2024/01/07 00:23:16;;;;;;;0.50;0.45;;;;;;;;;;5094871;28;20051;-86
2024/01/07 00:25:42;;;;;;;0.20;0.20;;;;;;;;;;5094709;28;20039;-85
2024/01/07 00:28:08;;;;;;;0.10;0.10;;;;;;;;;;5094376;28;20100;-85
2024/01/07 00:30:34;;;;;;;0.20;0.20;;;;;;;;;;5111202;28;20049;-86
2024/01/07 00:33:00;;;;;;;0.52;0.52;;;;;;;;;;5110885;28;20043;-85
2024/01/07 00:35:26;;;;;;;0.43;0.20;;;;;;;;;;5127961;27;20062;-85
2024/01/07 00:37:52;;;;;;;0.75;0.75;;;;;;;;;;5094192;28;20032;-85
2024/01/07 00:40:18;;;;;;;0.28;0.28;;;;;;;;;;5094299;28;20031;-85
2024/01/07 00:42:44;;;;;;;0.10;0.10;;;;;;;;;;5111062;28;20126;-85
2024/01/07 00:45:10;;;;;;;0.60;0.45;;;;;;;;;;5100938;28;20036;-85
2024/01/07 00:47:36;;;;;;;0.25;0.25;;;;;;;;;;5097309;28;20035;-85
2024/01/07 00:50:02;;;;;;;0.30;0.30;;;;;;;;;;5080506;28;20050;-85
2024/01/07 00:52:28;;;;;;;0.20;0.20;;;;;;;;;;5097940;28;20070;-85
2024/01/07 00:54:54;;;;;;;0.10;0.10;;;;;;;;;;5097074;28;20494;-85
2024/01/07 00:57:20;;;;;;;1.30;0.30;;;;;;;;;;5097260;28;20126;-85
2024/01/07 00:59:46;;;;;;;0.10;0.10;;;;;;;;;;5114205;28;20115;-85
2024/01/07 01:02:12;;;;;;;0.15;0.15;;;;;;;;;;5080156;28;20490;-84
2024/01/07 01:04:40;;;;;;;0.63;0.63;;;;;;;;;;5096888;28;20043;-85
2024/01/07 01:07:07;;;;;;;0.25;0.25;;;;;;;;;;5097009;28;20118;-85
2024/01/07 01:09:33;;;;;;;0.38;0.38;;;;;;;;;;5097084;28;20475;-85
2024/01/07 01:11:59;;;;;;;0.20;0.20;;;;;;;;;;5079892;28;20043;-85
2024/01/07 01:14:25;;;;;;;0.10;0.10;;;;;;;;;;5096846;28;20051;-85
2024/01/07 01:16:51;;;;;;;0.30;0.30;;;;;;;;;;5113819;28;20043;-85
2024/01/07 01:19:18;;;;;;;0.10;0.10;;;;;;;;;;5079886;28;20035;-84
2024/01/07 01:21:44;;;;;;;3.20;0.82;;;;;;;;;;5096605;28;20545;-84
2024/01/07 01:24:10;;;;;;;0.35;0.35;;;;;;;;;;5080081;28;20410;-84
2024/01/07 01:26:36;;;;;;;0.85;0.25;;;;;;;;;;5113494;28;20178;-84
2024/01/07 01:29:02;;;;;;;0.35;0.35;;;;;;;;;;5096511;28;20043;-84
2024/01/07 01:31:28;;;;;;;1.08;0.65;;;;;;;;;;5096687;28;20043;-84
2024/01/07 01:33:54;;;;;;;0.10;0.10;;;;;;;;;;5096238;28;20039;-85
2024/01/07 01:36:20;;;;;;;0.20;0.20;;;;;;;;;;5096611;28;20044;-84
2024/01/07 01:38:47;;;;;;;0.20;0.20;;;;;;;;;;5096693;28;20040;-84
2024/01/07 01:41:13;;;;;;;0.47;0.35;;;;;;;;;;5096460;28;20040;-85
2024/01/07 01:43:39;;;;;;;0.20;0.20;;;;;;;;;;5079723;28;20044;-85
2024/01/07 01:46:05;;;;;;;0.28;0.28;;;;;;;;;;5096300;28;20108;-85
2024/01/07 01:48:31;;;;;;;0.32;0.30;;;;;;;;;;5113178;28;20455;-87
2024/01/07 01:50:57;;;;;;;1.85;0.73;;;;;;;;;;5079682;28;20039;-85
2024/01/07 01:53:24;;;;;;;1.35;0.82;;;;;;;;;;5079410;28;20063;-85
2024/01/07 01:55:50;;;;;;;0.30;0.30;;;;;;;;;;5095446;28;20085;-85
2024/01/07 01:58:16;;;;;;;0.40;0.40;;;;;;;;;;5079031;28;20036;-85
2024/01/07 02:00:42;;;;;;;0.65;0.20;;;;;;;;;;5095809;28;20035;-85
2024/01/07 02:03:08;;;;;;;0.10;0.10;;;;;;;;;;5095810;28;20047;-85
2024/01/07 02:05:34;;;;;;;0.75;0.75;;;;;;;;;;5112595;28;20551;-85
2024/01/07 02:08:00;;;;;;;0.20;0.20;;;;;;;;;;5095811;28;20134;-86
2024/01/07 02:10:27;;;;;;;0.20;0.20;;;;;;;;;;5095629;28;20180;-85
2024/01/07 02:12:53;;;;;;;0.20;0.20;;;;;;;;;;5095865;28;20050;-85
2024/01/07 02:15:20;;;;;;;0.20;0.20;;;;;;;;;;5095549;28;20130;-85
2024/01/07 02:17:46;;;;;;;0.10;0.10;;;;;;;;;;5078744;28;20039;-85
2024/01/07 02:20:12;;;;;;;0.10;0.10;;;;;;;;;;5078566;28;20046;-85
2024/01/07 02:22:38;;;;;;;0.28;0.28;;;;;;;;;;5095765;28;20096;-85
2024/01/07 02:25:04;;;;;;;1.13;1.13;;;;;;;;;;5078792;28;20399;-85
2024/01/07 02:27:30;;;;;;;0.30;0.30;;;;;;;;;;5095768;28;20204;-85
2024/01/07 02:29:57;;;;;;;0.20;0.20;;;;;;;;;;5078448;28;20506;-85
2024/01/07 02:32:23;;;;;;;0.10;0.10;;;;;;;;;;5095189;28;20066;-85
2024/01/07 02:34:49;;;;;;;0.32;0.32;;;;;;;;;;5112260;28;20422;-85
2024/01/07 02:37:15;;;;;;;0.10;0.10;;;;;;;;;;5112054;28;20065;-85
2024/01/07 02:39:41;;;;;;;1.13;0.80;;;;;;;;;;5095408;28;20391;-86
2024/01/07 02:42:07;;;;;;;1.05;1.00;;;;;;;;;;5111955;28;20039;-85
2024/01/07 02:44:33;;;;;;;0.57;0.57;;;;;;;;;;5095273;28;20122;-85
2024/01/07 02:46:59;;;;;;;0.10;0.10;;;;;;;;;;5094903;28;20082;-84
2024/01/07 02:49:25;;;;;;;0.28;0.28;;;;;;;;;;5095372;28;20071;-85
2024/01/07 02:51:51;;;;;;;0.10;0.10;;;;;;;;;;5095219;28;20036;-85
2024/01/07 02:54:17;;;;;;;0.40;0.40;;;;;;;;;;5078048;28;20032;-84
2024/01/07 02:56:43;;;;;;;0.10;0.10;;;;;;;;;;5111774;28;20047;-84
2024/01/07 02:59:09;;;;;;;0.10;0.10;;;;;;;;;;5111727;28;20050;-85
2024/01/07 03:01:40;;;;;;;0.20;0.20;;;;;;;;;;5111590;28;20084;-85
2024/01/07 03:04:07;;;;;;;0.30;0.30;;;;;;;;;;5078671;28;20177;-88
2024/01/07 03:06:33;;;;;;;0.15;0.15;;;;;;;;;;5078052;28;20482;-86
2024/01/07 03:08:59;;;;;;;0.20;0.20;;;;;;;;;;5094697;28;20051;-86
2024/01/07 03:11:25;;;;;;;0.10;0.10;;;;;;;;;;5094590;28;20592;-86
2024/01/07 03:13:51;;;;;;;0.85;0.85;;;;;;;;;;5111355;28;20123;-85
2024/01/07 03:16:21;;;;;;;0.20;0.20;;;;;;;;;;5077852;28;20502;-86
2024/01/07 03:18:47;;;;;;;0.40;0.40;;;;;;;;;;5111457;28;20084;-85
2024/01/07 03:21:20;;;;;;;0.30;0.30;;;;;;;;;;5094675;28;20043;-85
2024/01/07 03:23:46;;;;;;;0.20;0.20;;;;;;;;;;5111377;28;20050;-85
2024/01/07 03:26:12;;;;;;;0.10;0.10;;;;;;;;;;5077763;28;20036;-85
2024/01/07 03:28:38;;;;;;;0.20;0.20;;;;;;;;;;5077563;28;20078;-85
2024/01/07 03:31:14;;;;;;;0.10;0.10;;;;;;;;;;5094384;28;20040;-86
2024/01/07 03:33:41;;;;;;;0.30;0.30;;;;;;;;;;5077334;28;20059;-85
2024/01/07 03:36:10;;;;;;;0.20;0.20;;;;;;;;;;5077723;28;20514;-85
2024/01/07 03:38:36;;;;;;;3.03;0.30;;;;;;;;;;5111080;28;20486;-84
2024/01/07 03:41:03;;;;;;;0.40;0.40;;;;;;;;;;5093917;28;20042;-85
2024/01/07 03:43:29;;;;;;;0.22;0.20;;;;;;;;;;5111137;28;20055;-84
2024/01/07 03:45:55;;;;;;;0.73;0.73;;;;;;;;;;5094418;28;20103;-85
2024/01/07 03:48:21;;;;;;;0.40;0.40;;;;;;;;;;5094152;28;20044;-84
2024/01/07 03:50:47;;;;;;;0.15;0.15;;;;;;;;;;5094077;28;20126;-85
2024/01/07 03:53:13;;;;;;;0.10;0.10;;;;;;;;;;5077300;28;20039;-86
2024/01/07 03:55:39;;;;;;;6.22;0.85;;;;;;;;;;5094417;28;20394;-85
2024/01/07 03:58:05;;;;;;;0.10;0.10;;;;;;;;;;5094417;28;20057;-85
2024/01/07 04:00:32;;;;;;;0.25;0.25;;;;;;;;;;5094305;28;20031;-86
2024/01/07 04:02:58;;;;;;;1.90;0.98;;;;;;;;;;5094383;28;20050;-85
2024/01/07 04:05:24;;;;;;;0.10;0.10;;;;;;;;;;5093987;28;20036;-85
2024/01/07 04:07:50;;;;;;;0.20;0.20;;;;;;;;;;5110984;28;20378;-83
2024/01/07 04:10:19;;;;;;;0.17;0.17;;;;;;;;;;5077213;28;20131;-85
2024/01/07 04:12:45;;;;;;;0.10;0.10;;;;;;;;;;5077068;28;20044;-85
2024/01/07 04:15:14;;;;;;;0.10;0.10;;;;;;;;;;5094260;28;20433;-85
2024/01/07 04:17:40;;;;;;;0.10;0.10;;;;;;;;;;5094221;28;20059;-85
2024/01/07 04:20:06;;;;;;;0.20;0.20;;;;;;;;;;5095763;28;20074;-86
2024/01/07 04:22:32;;;;;;;0.20;0.20;;;;;;;;;;5114781;28;20050;-85
2024/01/07 04:24:58;;;;;;;0.30;0.30;;;;;;;;;;5097838;28;20126;-85
2024/01/07 04:27:27;;;;;;;0.38;0.38;;;;;;;;;;5080928;28;20082;-85
2024/01/07 04:29:53;;;;;;;0.10;0.10;;;;;;;;;;5081393;28;20366;-85
2024/01/07 04:32:20;;;;;;;0.10;0.10;;;;;;;;;;5097271;28;20067;-85
2024/01/07 04:34:46;;;;;;;0.20;0.20;;;;;;;;;;5097572;28;20079;-85
2024/01/07 04:37:12;;;;;;;0.10;0.10;;;;;;;;;;5097724;28;20039;-86
2024/01/07 04:39:38;;;;;;;0.20;0.20;;;;;;;;;;5114401;28;20478;-85
2024/01/07 04:42:04;;;;;;;0.10;0.10;;;;;;;;;;5097545;28;20036;-85
2024/01/07 04:44:30;;;;;;;0.10;0.10;;;;;;;;;;5080741;28;20077;-85
2024/01/07 04:46:56;;;;;;;0.20;0.20;;;;;;;;;;5097628;28;20039;-84
2024/01/07 04:49:22;;;;;;;0.10;0.10;;;;;;;;;;5097366;28;20185;-85
2024/01/07 04:51:48;;;;;;;0.68;0.10;;;;;;;;;;5114050;28;20130;-85
2024/01/07 04:54:14;;;;;;;0.10;0.10;;;;;;;;;;5097131;28;20124;-85
2024/01/07 04:56:40;;;;;;;0.10;0.10;;;;;;;;;;5097362;28;20035;-85
2024/01/07 04:59:06;;;;;;;0.13;0.13;;;;;;;;;;5097223;28;20040;-85
2024/01/07 05:01:35;;;;;;;0.20;0.20;;;;;;;;;;5114387;28;20336;-85
2024/01/07 05:04:01;;;;;;;0.10;0.10;;;;;;;;;;5097392;28;20039;-85
2024/01/07 05:06:27;;;;;;;0.20;0.20;;;;;;;;;;5079993;28;20050;-85
2024/01/07 05:08:53;;;;;;;0.10;0.10;;;;;;;;;;5080150;28;20131;-85
2024/01/07 05:11:19;;;;;;;0.10;0.10;;;;;;;;;;5113752;28;20134;-85
2024/01/07 05:13:45;;;;;;;0.10;0.10;;;;;;;;;;5096784;28;20491;-85
2024/01/07 05:16:21;;;;;;;0.80;0.55;;;;;;;;;;5113757;28;20109;-86
2024/01/07 05:18:48;;;;;;;0.15;0.15;;;;;;;;;;5096731;28;20042;-85
2024/01/07 05:21:23;;;;;;;0.20;0.20;;;;;;;;;;5096877;28;20039;-85
2024/01/07 05:23:49;;;;;;;0.10;0.10;;;;;;;;;;5079894;28;20039;-85
2024/01/07 05:26:15;;;;;;;0.10;0.10;;;;;;;;;;5096645;28;20044;-86
2024/01/07 05:28:41;;;;;;;0.30;0.30;;;;;;;;;;5096590;28;20533;-85
2024/01/07 05:31:20;;;;;;;0.47;0.20;;;;;;;;;;5113298;28;20039;-85
2024/01/07 05:33:46;;;;;;;1.15;0.45;;;;;;;;;;5096328;28;20440;-85
2024/01/07 05:36:12;;;;;;;1.10;1.10;;;;;;;;;;5096730;28;20043;-85
2024/01/07 05:38:38;;;;;;;0.28;0.28;;;;;;;;;;5079518;28;20081;-85
2024/01/07 05:41:04;;;;;;;0.47;0.38;;;;;;;;;;5096660;28;20032;-86
2024/01/07 05:43:30;;;;;;;0.10;0.10;;;;;;;;;;5096538;28;20510;-85
2024/01/07 05:45:56;;;;;;;0.10;0.10;;;;;;;;;;5096059;28;20044;-86
2024/01/07 05:48:23;;;;;;;0.10;0.10;;;;;;;;;;5079594;28;20386;-85
2024/01/07 05:50:49;;;;;;;0.30;0.30;;;;;;;;;;5096115;28;20043;-86
2024/01/07 05:53:15;;;;;;;0.20;0.20;;;;;;;;;;5079211;28;20081;-86
2024/01/07 05:55:41;;;;;;;0.20;0.20;;;;;;;;;;5096005;28;20093;-85
2024/01/07 05:58:07;;;;;;;0.10;0.10;;;;;;;;;;5096048;28;20452;-86
2024/01/07 06:00:33;;;;;;;0.30;0.30;;;;;;;;;;5112652;28;20042;-86
2024/01/07 06:03:00;;;;;;;0.10;0.10;;;;;;;;;;5079060;28;20039;-85
2024/01/07 06:05:26;;;;;;;0.10;0.10;;;;;;;;;;5095829;28;20047;-85
2024/01/07 06:07:52;;;;;;;0.10;0.10;;;;;;;;;;5112917;28;20044;-85
2024/01/07 06:10:18;;;;;;;0.10;0.10;;;;;;;;;;5112550;28;20075;-86
2024/01/07 06:12:44;;;;;;;0.20;0.20;;;;;;;;;;5112746;28;20040;-85
2024/01/07 06:15:10;;;;;;;0.10;0.10;;;;;;;;;;5112758;28;20116;-85
2024/01/07 06:17:36;;;;;;;0.20;0.20;;;;;;;;;;5078897;28;20055;-85
2024/01/07 06:20:02;;;;;;;0.35;0.35;;;;;;;;;;5095525;28;20155;-85
2024/01/07 06:22:28;;;;;;;0.10;0.10;;;;;;;;;;5095482;28;20082;-85
2024/01/07 06:24:54;;;;;;;0.10;0.10;;;;;;;;;;5078599;28;20085;-86
2024/01/07 06:27:20;;;;;;;0.25;0.25;;;;;;;;;;5078787;28;20082;-86
2024/01/07 06:29:46;;;;;;;0.10;0.10;;;;;;;;;;5095195;28;20122;-85
2024/01/07 06:32:13;;;;;;;0.10;0.10;;;;;;;;;;5095149;28;20122;-85
2024/01/07 06:34:39;;;;;;;0.10;0.10;;;;;;;;;;5095553;28;20051;-86
2024/01/07 06:37:07;;;;;;;0.10;0.10;;;;;;;;;;5078693;28;20050;-86
2024/01/07 06:39:34;;;;;;;0.47;0.47;;;;;;;;;;5078527;28;20073;-86
2024/01/07 06:42:00;;;;;;;0.20;0.20;;;;;;;;;;5094680;28;20066;-85
2024/01/07 06:44:26;;;;;;;0.10;0.10;;;;;;;;;;5095060;28;20394;-86
2024/01/07 06:46:52;;;;;;;0.20;0.20;;;;;;;;;;5095057;28;20143;-86
2024/01/07 06:49:18;;;;;;;0.10;0.10;;;;;;;;;;5095103;28;20063;-85
2024/01/07 06:51:44;;;;;;;0.20;0.20;;;;;;;;;;5094923;28;20490;-85
2024/01/07 06:54:11;;;;;;;0.20;0.20;;;;;;;;;;5095121;28;20040;-85
2024/01/07 06:56:37;;;;;;;0.10;0.10;;;;;;;;;;5095025;28;20100;-86
2024/01/07 06:59:03;;;;;;;0.65;0.52;;;;;;;;;;5111775;28;20035;-86
2024/01/07 07:01:29;;;;;;;0.20;0.20;;;;;;;;;;5094794;28;20123;-86
2024/01/07 07:03:55;;;;;;;0.10;0.10;;;;;;;;;;5078083;28;20077;-86
2024/01/07 07:06:21;;;;;;;0.10;0.10;;;;;;;;;;5077807;28;20039;-84
2024/01/07 07:08:47;;;;;;;0.10;0.10;;;;;;;;;;5094802;28;20051;-86
2024/01/07 07:11:13;;;;;;;0.20;0.20;;;;;;;;;;5094628;28;20482;-85
2024/01/07 07:13:39;;;;;;;0.13;0.13;;;;;;;;;;5077885;28;20036;-85
2024/01/07 07:16:05;;;;;;;0.10;0.10;;;;;;;;;;5078134;28;20066;-86
2024/01/07 07:18:31;;;;;;;0.10;0.10;;;;;;;;;;5094623;28;20045;-85
2024/01/07 07:20:57;;;;;;;0.10;0.10;;;;;;;;;;5111380;28;20122;-85
2024/01/07 07:23:23;;;;;;;0.22;0.22;;;;;;;;;;5094593;28;20473;-86
2024/01/07 07:25:49;;;;;;;0.10;0.10;;;;;;;;;;5094811;28;20512;-85
2024/01/07 07:28:17;;;;;;;0.10;0.10;;;;;;;;;;5094462;28;20083;-86
2024/01/07 07:30:43;;;;;;;3.10;1.17;;;;;;;;;;5078017;28;20040;-85
2024/01/07 07:33:09;;;;;;;0.10;0.10;;;;;;;;;;5111352;28;20134;-86
2024/01/07 07:35:35;;;;;;;0.30;0.30;;;;;;;;;;5094374;28;20066;-86
2024/01/07 07:38:01;;;;;;;0.30;0.30;;;;;;;;;;5094400;28;20089;-86
2024/01/07 07:40:27;;;;;;;0.20;0.20;;;;;;;;;;5094311;28;20035;-85
2024/01/07 07:42:53;;;;;;;0.10;0.10;;;;;;;;;;5094597;28;20472;-88
2024/01/07 07:45:19;;;;;;;0.32;0.32;;;;;;;;;;5111291;28;20116;-85
2024/01/07 07:47:45;;;;;;;0.10;0.10;;;;;;;;;;5077462;28;20122;-88
2024/01/07 07:50:11;;;;;;;0.10;0.10;;;;;;;;;;5094376;28;20043;-86
2024/01/07 07:52:37;;;;;;;0.10;0.10;;;;;;;;;;5094249;28;20044;-87
2024/01/07 07:55:06;;;;;;;0.10;0.10;;;;;;;;;;5096088;28;20088;-87
2024/01/07 07:57:33;;;;;;;0.10;0.10;;;;;;;;;;5098839;28;20122;-87
2024/01/07 07:59:59;;;;;;;0.10;0.10;;;;;;;;;;5081347;28;20036;-86
2024/01/07 08:02:25;;;;;;;0.20;0.20;;;;;;;;;;5098329;28;20583;-87
2024/01/07 08:04:51;;;;;;;0.10;0.10;;;;;;;;;;5098354;28;20154;-86
2024/01/07 08:07:17;;;;;;;0.10;0.10;;;;;;;;;;5081313;28;20042;-86
2024/01/07 08:09:43;;;;;;;0.20;0.20;;;;;;;;;;5098408;28;20093;-86
2024/01/07 08:12:10;;;;;;;0.52;0.52;;;;;;;;;;5098002;28;20075;-85
2024/01/07 08:14:36;;;;;;;0.10;0.10;;;;;;;;;;5097798;28;20062;-85
2024/01/07 08:17:04;;;;;;;0.10;0.10;;;;;;;;;;5081134;28;20526;-85
2024/01/07 08:19:33;;;;;;;0.10;0.10;;;;;;;;;;5098886;28;20039;-86
2024/01/07 08:21:59;;;;;;;0.10;0.10;;;;;;;;;;5097876;28;20043;-86
2024/01/07 08:24:25;;;;;;;0.10;0.10;;;;;;;;;;5097790;28;20511;-85
2024/01/07 08:26:51;;;;;;;0.10;0.10;;;;;;;;;;5097649;28;20043;-85
2024/01/07 08:29:18;;;;;;;0.20;0.20;;;;;;;;;;5097683;28;20040;-84
2024/01/07 08:31:44;;;;;;;0.20;0.20;;;;;;;;;;5097731;28;20513;-88
2024/01/07 08:34:10;;;;;;;0.15;0.15;;;;;;;;;;5097437;28;20048;-85
2024/01/07 08:36:36;;;;;;;0.10;0.10;;;;;;;;;;5097570;28;20048;-84
2024/01/07 08:39:02;;;;;;;0.35;0.20;;;;;;;;;;5097781;28;20039;-84
2024/01/07 08:41:28;;;;;;;0.10;0.10;;;;;;;;;;5080660;28;20135;-84
2024/01/07 08:43:54;;;;;;;0.10;0.10;;;;;;;;;;5080556;28;20039;-84
2024/01/07 08:46:21;;;;;;;0.10;0.10;;;;;;;;;;5114326;28;20062;-85
2024/01/07 08:48:47;;;;;;;0.10;0.10;;;;;;;;;;5097808;28;20039;-85
2024/01/07 08:51:13;;;;;;;0.20;0.20;;;;;;;;;;5115975;28;20457;-86
2024/01/07 08:53:39;;;;;;;0.50;0.50;;;;;;;;;;5113956;28;20091;-86
2024/01/07 08:56:06;;;;;;;0.10;0.10;;;;;;;;;;5080212;28;20123;-85
2024/01/07 08:58:32;;;;;;;0.22;0.22;;;;;;;;;;5097289;28;20035;-86
2024/01/07 09:00:58;;;;;;;0.10;0.10;;;;;;;;;;5113812;28;20126;-87
2024/01/07 09:03:24;;;;;;;0.10;0.10;;;;;;;;;;5114063;28;20092;-88
2024/01/07 09:05:50;;;;;;;0.10;0.10;;;;;;;;;;5079550;28;20047;-88
2024/01/07 09:08:16;;;;;;;0.10;0.10;;;;;;;;;;5080222;28;20051;-89
2024/01/07 09:10:43;;;;;;;0.28;0.28;;;;;;;;;;5096635;28;20084;-87
2024/01/07 09:13:09;;;;;;;0.10;0.10;;;;;;;;;;5096697;28;20775;-88
2024/01/07 09:15:35;;;;;;;0.20;0.20;;;;;;;;;;5079332;28;20361;-87
2024/01/07 09:18:01;;;;;;;0.10;0.10;;;;;;;;;;5073907;28;20078;-87
2024/01/07 09:20:27;;;;;;;0.10;0.10;;;;;;;;;;5059703;28;20071;-86
2024/01/07 09:22:53;;;;;;;0.10;0.10;;;;;;;;;;5059768;28;20534;-87
2024/01/07 09:25:19;;;;;;;0.10;0.10;;;;;;;;;;5060529;28;20395;-87
2024/01/07 09:27:45;;;;;;;0.13;0.13;;;;;;;;;;5059737;28;20051;-90
2024/01/07 09:30:14;;;;;;;0.10;0.10;;;;;;;;;;5076770;28;20036;-94
2024/01/07 09:32:41;;;;;;;0.10;0.10;;;;;;;;;;5063309;28;20072;-92
2024/01/07 09:35:08;;;;;;;0.20;0.20;;;;;;;;;;5061380;28;20044;-90
2024/01/07 09:37:35;;;;;;;0.20;0.15;;;;;;;;;;5059982;28;20490;-88
2024/01/07 09:40:01;;;;;;;0.10;0.10;;;;;;;;;;5059479;28;20169;-86
2024/01/07 09:42:27;;;;;;;0.10;0.10;;;;;;;;;;5076070;28;20047;-87
2024/01/07 09:44:53;;;;;;;0.10;0.10;;;;;;;;;;5059330;28;20039;-91
2024/01/07 09:47:20;;;;;;;0.20;0.20;;;;;;;;;;5076492;28;20040;-84
2024/01/07 09:49:46;;;;;;;0.20;0.20;;;;;;;;;;5075906;28;20422;-84
2024/01/07 09:52:12;;;;;;;0.10;0.10;;;;;;;;;;5092793;28;20069;-90
2024/01/07 09:54:39;;;;;;;0.10;0.10;;;;;;;;;;5059199;28;20036;-89
2024/01/07 09:57:08;;;;;;;0.10;0.10;;;;;;;;;;5076213;28;20435;-87
2024/01/07 09:59:40;;;;;;;0.10;0.10;;;;;;;;;;5076983;28;20082;-89
2024/01/07 10:02:09;;;;;;;0.38;0.38;;;;;;;;;;5059325;28;20043;-90
2024/01/07 10:04:38;;;;;;;0.10;0.10;;;;;;;;;;5076409;28;20043;-84
2024/01/07 10:07:04;;;;;;;0.10;0.10;;;;;;;;;;5058973;28;20101;-87
2024/01/07 10:09:33;;;;;;;0.10;0.10;;;;;;;;;;5076313;28;20048;-87
2024/01/07 10:12:00;;;;;;;0.10;0.10;;;;;;;;;;5075553;28;20399;-87
2024/01/07 10:14:28;;;;;;;0.10;0.10;;;;;;;;;;5075372;28;20068;-89
2024/01/07 10:16:56;;;;;;;0.10;0.10;;;;;;;;;;5074740;28;20044;-89
2024/01/07 10:19:26;;;;;;;0.10;0.10;;;;;;;;;;5075799;28;20071;-89
2024/01/07 10:22:01;;;;;;;0.10;0.10;;;;;;;;;;5075769;28;20140;-89
2024/01/07 10:24:36;;;;;;;0.10;0.10;;;;;;;;;;5075243;28;20039;-89
2024/01/07 10:27:04;;;;;;;0.10;0.10;;;;;;;;;;5058757;28;20036;-90
2024/01/07 10:29:32;;;;;;;0.70;0.52;;;;;;;;;;5075489;28;20063;-89
2024/01/07 10:32:03;;;;;;;0.20;0.20;;;;;;;;;;5058718;28;20481;-88
2024/01/07 10:34:32;;;;;;;0.10;0.10;;;;;;;;;;5059068;28;20483;-89
2024/01/07 10:36:59;;;;;;;0.20;0.20;;;;;;;;;;5058595;28;20047;-85
2024/01/07 10:39:25;;;;;;;0.20;0.20;;;;;;;;;;5058640;28;20040;-91
2024/01/07 10:41:58;;;;;;;0.10;0.10;;;;;;;;;;5076536;28;20042;-89
2024/01/07 10:44:25;;;;;;;0.10;0.10;;;;;;;;;;5079614;28;20475;-90
2024/01/07 10:46:52;;;;;;;0.17;0.17;;;;;;;;;;5078965;28;20039;-90
2024/01/07 10:49:21;;;;;;;0.13;0.13;;;;;;;;;;5095348;28;20047;-89
2024/01/07 10:52:08;;;;;;;0.10;0.10;;;;;;;;;;5098110;28;20104;-95
2024/01/07 10:54:43;;;;;;;0.10;0.10;;;;;;;;;;5112031;28;20032;-90
2024/01/07 10:57:11;;;;;;;0.20;0.20;;;;;;;;;;5052112;23;20149;-90
2024/01/07 10:59:37;;;;;;;0.25;0.25;;;;;;;;;;4995314;28;20049;-89
2024/01/07 11:02:03;;;;;;;0.10;0.10;;;;;;;;;;4982672;28;20051;-87
2024/01/07 11:04:48;;;;;;;0.95;0.55;;;;;;;;;;5015024;28;20099;-88
2024/01/07 11:07:32;;;;;;;0.10;0.10;;;;;;;;;;5010623;28;20041;-89
2024/01/07 11:10:04;;;;;;;0.10;0.10;;;;;;;;;;4979638;28;20092;-88
2024/01/07 11:12:31;;;;;;;0.10;0.10;;;;;;;;;;4980800;28;20535;-88
2024/01/07 11:14:58;;;;;;;0.10;0.10;;;;;;;;;;4979147;28;20517;-88
2024/01/07 11:17:37;;;;;;;0.10;0.10;;;;;;;;;;5000280;28;20037;-88
2024/01/07 11:20:03;;;;;;;0.10;0.10;;;;;;;;;;5031252;28;20041;-88
2024/01/07 11:22:32;;;;;;;0.10;0.10;;;;;;;;;;5014649;28;20050;-89
2024/01/07 11:25:02;;;;;;;0.28;0.28;;;;;;;;;;4999232;28;20048;-90
2024/01/07 11:27:32;;;;;;;0.57;0.57;;;;;;;;;;4998360;28;20034;-87
2024/01/07 11:30:04;;;;;;;0.22;0.22;;;;;;;;;;5004670;28;20038;-92
2024/01/07 11:32:30;;;;;;;0.30;0.30;;;;;;;;;;5014291;28;20033;-87
2024/01/07 11:34:59;;;;;;;0.10;0.10;;;;;;;;;;5014936;28;20077;-88
2024/01/07 11:37:25;;;;;;;0.10;0.10;;;;;;;;;;5001044;28;20045;-88
2024/01/07 11:39:52;;;;;;;0.10;0.10;;;;;;;;;;5001716;28;20052;-94
2024/01/07 11:42:18;;;;;;;0.98;0.47;;;;;;;;;;5015105;28;20049;-90
2024/01/07 11:44:48;;;;;;;0.10;0.10;;;;;;;;;;5014251;28;20041;-90
2024/01/07 11:47:14;;;;;;;0.10;0.10;;;;;;;;;;5015942;28;20497;-89
2024/01/07 11:49:40;;;;;;;0.25;0.25;;;;;;;;;;5034077;28;20634;-88
2024/01/07 11:52:06;;;;;;;0.22;0.22;;;;;;;;;;5015697;28;20064;-89
2024/01/07 11:54:32;;;;;;;0.15;0.15;;;;;;;;;;4994596;28;20046;-91
2024/01/07 11:56:58;;;;;;;0.10;0.10;;;;;;;;;;5010992;28;20371;-91
2024/01/07 11:59:26;;;;;;;0.10;0.10;;;;;;;;;;5016528;28;20103;-91
2024/01/07 12:01:52;;;;;;;0.57;0.57;;;;;;;;;;4998175;28;20044;-85
2024/01/07 12:04:18;;;;;;;0.20;0.20;;;;;;;;;;4997703;28;20099;-91
2024/01/07 12:06:44;;;;;;;0.20;0.20;;;;;;;;;;5017019;28;20385;-90
2024/01/07 12:09:13;;;;;;;0.10;0.10;;;;;;;;;;4998319;28;20117;-89
2024/01/07 12:11:40;;;;;;;0.20;0.20;;;;;;;;;;5000233;28;20052;-91
2024/01/07 12:14:06;;;;;;;0.10;0.10;;;;;;;;;;4986247;28;20049;-91
2024/01/07 12:16:32;;;;;;;0.20;0.20;;;;;;;;;;4994847;28;20034;-90
2024/01/07 12:18:58;;;;;;;0.35;0.13;;;;;;;;;;4979045;28;20128;-89
2024/01/07 12:21:26;;;;;;;0.20;0.20;;;;;;;;;;4979315;28;20114;-90
2024/01/07 12:23:54;;;;;;;0.10;0.10;;;;;;;;;;4980166;28;20069;-93
2024/01/07 12:26:21;;;;;;;0.17;0.17;;;;;;;;;;4981536;28;20042;-93
2024/01/07 12:28:52;;;;;;;0.10;0.10;;;;;;;;;;4979194;28;20133;-91
2024/01/07 12:31:18;;;;;;;0.20;0.20;;;;;;;;;;4995130;28;20432;-90
2024/01/07 12:33:44;;;;;;;0.32;0.32;;;;;;;;;;5003060;28;20048;-92
2024/01/07 12:36:10;;;;;;;0.10;0.10;;;;;;;;;;4994643;28;20091;-90
2024/01/07 12:38:39;;;;;;;0.55;0.52;;;;;;;;;;4988980;28;20110;-90
2024/01/07 12:41:05;;;;;;;1.00;0.93;;;;;;;;;;5006619;28;20029;-90
2024/01/07 12:43:31;;;;;;;0.10;0.10;;;;;;;;;;5001753;28;20457;-91
2024/01/07 12:46:03;;;;;;;0.40;0.40;;;;;;;;;;4981970;28;20053;-89
2024/01/07 12:48:30;;;;;;;0.30;0.30;;;;;;;;;;4985485;28;20099;-91
2024/01/07 12:50:56;;;;;;;0.20;0.20;;;;;;;;;;4981651;28;20489;-89
2024/01/07 12:53:22;;;;;;;0.10;0.10;;;;;;;;;;4997492;28;20065;-88
2024/01/07 12:55:48;;;;;;;0.68;0.68;;;;;;;;;;4981204;28;20057;-88
2024/01/07 12:58:14;;;;;;;0.10;0.10;;;;;;;;;;5006863;28;20038;-88
2024/01/07 13:00:40;;;;;;;0.75;0.50;;;;;;;;;;5001695;28;20041;-91
2024/01/07 13:03:08;;;;;;;0.10;0.10;;;;;;;;;;5011757;28;20457;-90
2024/01/07 13:05:34;;;;;;;0.25;0.25;;;;;;;;;;4981913;28;20068;-90
2024/01/07 13:08:00;;;;;;;0.10;0.10;;;;;;;;;;4981502;28;20048;-92
2024/01/07 13:10:27;;;;;;;0.10;0.10;;;;;;;;;;4981622;28;20042;-87
2024/01/07 13:12:54;;;;;;;0.10;0.10;;;;;;;;;;4981778;28;20088;-90
2024/01/07 13:15:20;;;;;;;0.10;0.10;;;;;;;;;;4998913;28;20374;-92
2024/01/07 13:17:46;;;;;;;0.47;0.47;;;;;;;;;;4981985;28;20042;-91
2024/01/07 13:20:12;;;;;;;0.50;0.50;;;;;;;;;;4997562;28;20124;-89
2024/01/07 13:22:38;;;;;;;0.32;0.32;;;;;;;;;;4997849;28;20125;-88
2024/01/07 13:25:05;;;;;;;0.15;0.15;;;;;;;;;;4997377;28;20096;-91
2024/01/07 13:27:31;;;;;;;0.10;0.10;;;;;;;;;;4998041;28;20038;-88
2024/01/07 13:29:57;;;;;;;0.30;0.30;;;;;;;;;;4981091;28;20040;-89
2024/01/07 13:32:23;;;;;;;0.10;0.10;;;;;;;;;;4997539;28;20117;-87
2024/01/07 13:34:49;;;;;;;0.10;0.10;;;;;;;;;;4980574;28;20104;-87
2024/01/07 13:37:15;;;;;;;0.10;0.10;;;;;;;;;;4996794;28;20445;-86
2024/01/07 13:39:42;;;;;;;0.32;0.30;;;;;;;;;;4996980;28;20038;-87
2024/01/07 13:42:08;;;;;;;0.10;0.10;;;;;;;;;;4980752;28;20382;-85
2024/01/07 13:44:34;;;;;;;0.98;0.32;;;;;;;;;;4996695;28;20077;-85
2024/01/07 13:47:01;;;;;;;0.35;0.35;;;;;;;;;;4980464;28;20038;-85
2024/01/07 13:49:28;;;;;;;0.60;0.60;;;;;;;;;;4996776;28;20052;-85
2024/01/07 13:51:55;;;;;;;0.10;0.10;;;;;;;;;;4980443;28;20046;-86
2024/01/07 13:54:21;;;;;;;0.40;0.40;;;;;;;;;;4980556;28;20092;-85
2024/01/07 13:56:47;;;;;;;0.10;0.10;;;;;;;;;;4980163;28;20073;-86
2024/01/07 13:59:13;;;;;;;0.20;0.20;;;;;;;;;;4996481;28;20033;-86
2024/01/07 14:01:39;;;;;;;0.10;0.10;;;;;;;;;;4980061;28;20492;-86
2024/01/07 14:04:05;;;;;;;0.20;0.20;;;;;;;;;;5012622;28;20041;-85
2024/01/07 14:06:32;;;;;;;0.20;0.20;;;;;;;;;;4980240;28;20052;-84
2024/01/07 14:08:58;;;;;;;0.10;0.10;;;;;;;;;;4996439;28;20048;-84
2024/01/07 14:11:24;;;;;;;0.28;0.28;;;;;;;;;;4996470;28;20110;-85
2024/01/07 14:13:50;;;;;;;0.10;0.10;;;;;;;;;;4980101;28;20448;-84
2024/01/07 14:16:16;;;;;;;0.10;0.10;;;;;;;;;;4996053;28;20038;-86
2024/01/07 14:18:42;;;;;;;0.17;0.17;;;;;;;;;;5012378;28;20045;-85
2024/01/07 14:21:09;;;;;;;0.30;0.30;;;;;;;;;;4980184;28;20038;-85
2024/01/07 14:23:35;;;;;;;0.20;0.20;;;;;;;;;;4979914;28;20515;-84
2024/01/07 14:26:02;;;;;;;0.30;0.30;;;;;;;;;;4995960;28;20046;-84
2024/01/07 14:28:28;;;;;;;0.17;0.17;;;;;;;;;;4996202;28;20045;-85
2024/01/07 14:30:54;;;;;;;0.10;0.10;;;;;;;;;;4979574;28;20411;-84
2024/01/07 14:33:20;;;;;;;0.10;0.10;;;;;;;;;;5011971;28;20046;-85
2024/01/07 14:35:46;;;;;;;0.10;0.10;;;;;;;;;;4979911;28;20034;-84
2024/01/07 14:38:12;;;;;;;0.17;0.17;;;;;;;;;;4995744;28;20477;-85
2024/01/07 14:40:41;;;;;;;0.10;0.10;;;;;;;;;;4995703;28;20088;-85